createdAt,value
2018-09-23T00:01:41.693Z,14.95
2018-09-23T00:04:17.154Z,19.10
2018-09-23T00:06:52.637Z,16.55
2018-09-23T00:09:28.027Z,17.07
2018-09-23T00:12:03.708Z,18.20
2018-09-23T00:14:39.177Z,15.43
2018-09-23T00:17:14.896Z,18.42
2018-09-23T00:19:50.529Z,16.93
2018-09-23T00:22:26.031Z,23.20
2018-09-23T00:25:01.360Z,16.77
2018-09-23T00:27:36.817Z,20.05
2018-09-23T00:30:12.281Z,14.85
2018-09-23T00:32:47.849Z,17.07
2018-09-23T00:35:23.342Z,15.40
2018-09-23T00:37:58.801Z,17.85
2018-09-23T00:40:34.273Z,16.32
2018-09-23T00:43:09.769Z,20.88
2018-09-23T00:45:45.252Z,21.62
2018-09-23T00:48:20.838Z,29.75
2018-09-23T00:50:56.091Z,24.43
2018-09-23T00:53:31.681Z,22.52
2018-09-23T00:56:07.917Z,30.05
2018-09-23T00:58:43.209Z,27.55
2018-09-23T01:01:18.705Z,29.45
2018-09-23T01:03:54.297Z,22.65
2018-09-23T01:06:29.650Z,28.07
2018-09-23T01:09:07.352Z,29.02
2018-09-23T01:11:42.846Z,29.85
2018-09-23T01:14:18.269Z,28.42
2018-09-23T01:16:53.680Z,27.93
2018-09-23T01:19:29.197Z,32.23
2018-09-23T01:22:04.620Z,32.05
2018-09-23T01:24:40.152Z,32.58
2018-09-23T01:27:15.591Z,31.15
2018-09-23T01:29:51.025Z,43.75
2018-09-23T01:32:26.616Z,39.23
2018-09-23T01:35:02.213Z,36.33
2018-09-23T01:37:37.705Z,35.65
2018-09-23T01:40:13.474Z,44.40
2018-09-23T01:42:48.781Z,32.95
2018-09-23T01:45:24.384Z,38.58
2018-09-23T01:47:59.716Z,46.30
2018-09-23T01:50:35.154Z,38.28
2018-09-23T01:53:10.484Z,38.98
2018-09-23T01:55:45.933Z,39.27
2018-09-23T01:58:21.332Z,39.23
2018-09-23T02:00:56.724Z,39.23
2018-09-23T02:03:32.435Z,39.95
2018-09-23T02:06:08.021Z,40.55
2018-09-23T02:08:43.278Z,46.90
2018-09-23T02:11:18.798Z,45.92
2018-09-23T02:13:54.289Z,52.03
2018-09-23T02:16:29.943Z,47.17
2018-09-23T02:19:05.421Z,50.95
2018-09-23T02:21:40.797Z,44.33
2018-09-23T02:24:16.146Z,51.05
2018-09-23T02:26:51.692Z,45.15
2018-09-23T02:29:26.941Z,45.98
2018-09-23T02:32:02.432Z,53.28
2018-09-23T02:34:37.867Z,48.55
2018-09-23T02:37:13.358Z,58.23
2018-09-23T02:39:48.640Z,49.18
2018-09-23T02:42:24.243Z,55.40
2018-09-23T02:44:59.694Z,50.40
2018-09-23T02:47:35.476Z,54.88
2018-09-23T02:50:10.784Z,51.23
2018-09-23T02:52:46.233Z,45.83
2018-09-23T02:55:21.701Z,45.40
2018-09-23T02:57:57.241Z,40.58
2018-09-23T03:00:32.453Z,42.55
2018-09-23T03:03:07.837Z,42.62
2018-09-23T03:05:43.743Z,41.10
2018-09-23T03:08:19.294Z,33.00
2018-09-23T03:10:54.801Z,38.83
2018-09-23T03:13:30.326Z,33.85
2018-09-23T03:16:05.735Z,37.80
2018-09-23T03:18:41.294Z,36.03
2018-09-23T03:21:16.720Z,41.75
2018-09-23T03:23:52.207Z,38.95
2018-09-23T03:26:27.591Z,35.83
2018-09-23T03:29:03.145Z,44.38
2018-09-23T03:31:38.588Z,44.85
2018-09-23T03:34:14.216Z,36.90
2018-09-23T03:36:49.765Z,36.30
2018-09-23T03:39:25.137Z,39.35
2018-09-23T03:42:00.517Z,42.20
2018-09-23T03:44:36.029Z,40.58
2018-09-23T03:47:11.569Z,36.20
2018-09-23T03:49:46.897Z,40.75
2018-09-23T03:52:22.237Z,38.58
2018-09-23T03:54:57.576Z,34.73
2018-09-23T03:57:33.136Z,36.10
2018-09-23T04:00:08.660Z,36.88
2018-09-23T04:02:43.977Z,44.03
2018-09-23T04:05:19.413Z,40.25
2018-09-23T04:07:54.874Z,42.35
2018-09-23T04:10:30.281Z,40.73
2018-09-23T04:13:05.665Z,42.55
2018-09-23T04:15:41.308Z,40.63
2018-09-23T04:18:16.632Z,40.17
2018-09-23T04:20:51.962Z,37.20
2018-09-23T04:23:27.293Z,39.65
2018-09-23T04:26:02.741Z,39.45
2018-09-23T04:28:38.249Z,48.05
2018-09-23T04:31:13.684Z,42.33
2018-09-23T04:33:49.188Z,41.55
2018-09-23T04:36:24.786Z,44.10
2018-09-23T04:39:00.264Z,51.50
2018-09-23T04:41:35.768Z,39.70
2018-09-23T04:44:11.405Z,42.78
2018-09-23T04:46:47.049Z,41.65
2018-09-23T04:49:22.568Z,38.17
2018-09-23T04:51:57.945Z,41.75
2018-09-23T04:54:33.383Z,41.77
2018-09-23T04:57:08.856Z,48.92
2018-09-23T04:59:44.185Z,45.90
2018-09-23T05:02:19.592Z,41.92
2018-09-23T05:04:55.085Z,43.38
2018-09-23T05:07:30.596Z,55.43
2018-09-23T05:10:06.085Z,48.23
2018-09-23T05:12:41.741Z,46.60
2018-09-23T05:15:17.099Z,46.90
2018-09-23T05:17:52.652Z,51.40
2018-09-23T05:20:28.143Z,45.20
2018-09-23T05:23:03.737Z,47.05
2018-09-23T05:25:39.253Z,44.75
2018-09-23T05:28:14.731Z,49.55
2018-09-23T05:30:50.150Z,41.40
2018-09-23T05:33:25.597Z,49.33
2018-09-23T05:36:00.821Z,40.65
2018-09-23T05:38:36.411Z,51.35
2018-09-23T05:41:11.749Z,43.78
2018-09-23T05:43:47.277Z,44.18
2018-09-23T05:46:22.777Z,54.20
2018-09-23T05:48:58.153Z,48.48
2018-09-23T05:51:33.394Z,46.92
2018-09-23T05:54:09.009Z,41.33
2018-09-23T05:56:44.532Z,43.60
2018-09-23T05:59:20.117Z,41.23
2018-09-23T06:01:55.651Z,42.23
2018-09-23T06:04:31.193Z,43.83
2018-09-23T06:07:06.552Z,46.35
2018-09-23T06:09:41.976Z,40.50
2018-09-23T06:12:17.340Z,38.20
2018-09-23T06:14:52.722Z,43.00
2018-09-23T06:17:28.093Z,43.87
2018-09-23T06:20:03.688Z,48.42
2018-09-23T06:22:38.932Z,43.63
2018-09-23T06:25:14.409Z,51.13
2018-09-23T06:27:49.977Z,40.28
2018-09-23T06:30:25.520Z,36.05
2018-09-23T06:33:00.969Z,43.05
2018-09-23T06:35:36.552Z,41.15
2018-09-23T06:38:11.909Z,38.33
2018-09-23T06:40:47.501Z,39.45
2018-09-23T06:43:23.262Z,37.95
2018-09-23T06:45:58.833Z,36.38
2018-09-23T06:48:34.135Z,38.73
2018-09-23T06:58:53.953Z,35.65
2018-09-23T07:01:29.285Z,35.03
2018-09-23T07:04:04.800Z,34.30
2018-09-23T07:06:40.213Z,34.58
2018-09-23T07:09:15.721Z,35.40
2018-09-23T07:11:51.074Z,35.40
2018-09-23T07:14:26.546Z,34.70
2018-09-23T07:17:02.017Z,31.90
2018-09-23T07:19:37.496Z,34.75
2018-09-23T07:40:16.876Z,29.60
2018-09-23T07:42:52.514Z,31.30
2018-09-23T07:48:03.008Z,31.50
2018-09-23T07:50:38.633Z,30.45
2018-09-23T07:53:13.932Z,33.10
2018-09-23T08:03:33.722Z,31.40
2018-09-23T08:06:09.111Z,29.20
2018-09-23T08:08:44.657Z,30.65
2018-09-23T08:19:04.849Z,32.80
2018-09-23T08:21:40.141Z,27.65
2018-09-23T08:39:44.472Z,30.80
2018-09-23T09:21:03.112Z,24.82
2018-09-23T09:23:38.443Z,21.20
2018-09-23T09:26:14.074Z,23.67
2018-09-23T09:28:49.581Z,40.55
2018-09-23T09:31:25.006Z,26.15
2018-09-23T09:34:00.247Z,29.87
2018-09-23T09:36:35.687Z,24.43
2018-09-23T09:39:11.921Z,22.05
2018-09-23T09:41:47.697Z,27.58
2018-09-23T09:44:23.157Z,24.52
2018-09-23T09:46:58.574Z,33.95
2018-09-23T09:49:34.141Z,32.38
2018-09-23T09:52:09.517Z,27.93
2018-09-23T09:54:44.921Z,37.80
2018-09-23T09:57:20.610Z,26.68
2018-09-23T09:59:56.285Z,26.45
2018-09-23T10:02:31.848Z,27.42
2018-09-23T10:05:07.345Z,24.27
2018-09-23T10:07:42.636Z,27.48
2018-09-23T10:10:18.059Z,25.75
2018-09-23T10:12:53.770Z,34.98
2018-09-23T10:15:29.229Z,26.62
2018-09-23T10:18:04.815Z,26.27
2018-09-23T10:20:40.297Z,21.20
2018-09-23T10:23:15.941Z,25.88
2018-09-23T10:25:51.222Z,28.23
2018-09-23T10:28:26.821Z,26.20
2018-09-23T10:31:02.068Z,27.52
2018-09-23T10:33:37.618Z,21.15
2018-09-23T10:36:13.059Z,27.02
2018-09-23T10:38:48.665Z,27.27
2018-09-23T10:41:24.208Z,28.38
2018-09-23T10:43:59.813Z,27.58
2018-09-23T10:46:36.173Z,19.35
2018-09-23T10:49:11.779Z,20.75
2018-09-23T10:51:47.145Z,25.25
2018-09-23T10:54:22.756Z,22.55
2018-09-23T10:56:58.093Z,22.35
2018-09-23T10:59:33.603Z,22.60
2018-09-23T11:02:09.057Z,22.02
2018-09-23T11:04:44.640Z,19.02
2018-09-23T11:07:20.000Z,20.30
2018-09-23T11:09:55.524Z,25.37
2018-09-23T11:12:31.066Z,19.62
2018-09-23T11:15:06.554Z,24.85
2018-09-23T11:17:41.980Z,25.77
2018-09-23T11:20:24.756Z,22.98
2018-09-23T11:23:00.137Z,21.30
2018-09-23T11:25:35.636Z,25.23
2018-09-23T11:28:11.187Z,20.68
2018-09-23T11:30:46.800Z,19.80
2018-09-23T11:33:22.241Z,18.82
2018-09-23T11:35:57.759Z,26.37
2018-09-23T11:38:33.246Z,19.50
2018-09-23T11:41:08.821Z,18.05
2018-09-23T11:43:44.398Z,22.35
2018-09-23T11:46:19.991Z,22.90
2018-09-23T11:48:55.522Z,20.00
2018-09-23T11:51:31.183Z,22.67
2018-09-23T11:54:06.445Z,20.65
2018-09-23T11:56:42.090Z,20.02
2018-09-23T11:59:17.533Z,37.55
2018-09-23T12:01:54.584Z,20.00
2018-09-23T12:04:30.076Z,21.33
2018-09-23T12:07:05.491Z,23.70
2018-09-23T12:09:40.991Z,23.20
2018-09-23T12:12:16.437Z,17.35
2018-09-23T12:14:51.840Z,26.35
2018-09-23T12:17:27.315Z,18.10
2018-09-23T12:20:02.894Z,15.98
2018-09-23T12:22:38.373Z,19.30
2018-09-23T12:25:13.853Z,20.25
2018-09-23T12:27:49.299Z,20.15
2018-09-23T12:30:24.825Z,18.30
2018-09-23T12:33:00.132Z,20.20
2018-09-23T12:35:35.528Z,18.10
2018-09-23T12:38:10.973Z,22.67
2018-09-23T12:40:46.489Z,23.25
2018-09-23T12:53:41.486Z,18.00
2018-09-23T12:56:17.010Z,24.90
2018-09-23T12:58:52.454Z,16.42
2018-09-23T13:01:27.794Z,16.37
2018-09-23T13:04:03.202Z,12.43
2018-09-23T13:06:38.840Z,13.75
2018-09-23T13:09:14.334Z,14.58
2018-09-23T13:11:49.530Z,12.90
2018-09-23T13:14:24.980Z,11.68
2018-09-23T13:17:00.511Z,9.48
2018-09-23T13:19:36.231Z,10.45
2018-09-23T13:22:11.855Z,6.85
2018-09-23T13:24:47.357Z,6.80
2018-09-23T13:27:22.797Z,8.35
2018-09-23T13:29:58.306Z,11.35
2018-09-23T13:32:33.619Z,8.85
2018-09-23T13:35:09.053Z,8.55
2018-09-23T13:37:44.573Z,9.73
2018-09-23T13:40:20.013Z,11.50
2018-09-23T13:42:55.447Z,8.03
2018-09-23T13:45:31.261Z,11.85
2018-09-23T13:48:06.961Z,9.93
2018-09-23T13:50:42.576Z,8.93
2018-09-23T13:53:17.870Z,8.45
2018-09-23T13:55:53.408Z,6.35
2018-09-23T13:58:28.805Z,7.78
2018-09-23T14:01:04.281Z,7.53
2018-09-23T14:03:39.828Z,9.13
2018-09-23T14:06:15.272Z,11.48
2018-09-23T14:08:50.726Z,10.08
2018-09-23T14:11:26.395Z,15.45
2018-09-23T14:14:01.861Z,10.25
2018-09-23T14:16:37.386Z,9.48
2018-09-23T14:19:12.637Z,8.78
2018-09-23T14:21:48.130Z,10.58
2018-09-23T14:24:23.577Z,9.63
2018-09-23T14:26:59.147Z,10.90
2018-09-23T14:29:34.581Z,13.70
2018-09-23T14:32:16.901Z,12.30
2018-09-23T14:34:53.354Z,11.60
2018-09-23T14:37:29.273Z,8.88
2018-09-23T14:40:04.753Z,6.72
2018-09-23T14:42:40.557Z,13.00
2018-09-23T14:45:15.954Z,9.58
2018-09-23T14:47:51.520Z,15.58
2018-09-23T14:50:26.911Z,7.60
2018-09-23T14:53:02.578Z,10.95
2018-09-23T14:55:38.144Z,10.55
2018-09-23T14:58:13.714Z,12.13
2018-09-23T15:00:49.022Z,8.25
2018-09-23T15:03:24.632Z,8.73
2018-09-23T15:06:00.152Z,8.73
2018-09-23T15:08:35.692Z,8.23
2018-09-23T15:11:11.009Z,6.58
2018-09-23T15:13:46.749Z,8.73
2018-09-23T15:16:22.163Z,8.65
2018-09-23T15:18:57.989Z,11.55
2018-09-23T15:21:33.426Z,8.35
2018-09-23T15:24:09.141Z,10.05
2018-09-23T15:26:44.469Z,9.55
2018-09-23T15:29:19.985Z,7.85
2018-09-23T15:31:55.265Z,12.00
2018-09-23T15:34:30.787Z,12.37
2018-09-23T15:37:06.233Z,16.10
2018-09-23T15:39:41.759Z,13.98
2018-09-23T15:42:17.446Z,12.18
2018-09-23T15:44:53.052Z,15.55
2018-09-23T15:47:28.261Z,12.30
2018-09-23T15:50:03.971Z,12.43
2018-09-23T15:52:39.489Z,12.68
2018-09-23T15:55:14.936Z,11.55
2018-09-23T15:57:51.111Z,17.17
2018-09-23T16:00:26.601Z,36.38
2018-09-23T16:03:01.987Z,40.38
2018-09-23T16:05:37.657Z,17.30
2018-09-23T16:08:12.849Z,27.15
2018-09-23T16:10:48.424Z,29.65
2018-09-23T16:13:23.861Z,21.82
2018-09-23T16:15:59.537Z,14.70
2018-09-23T16:18:35.142Z,18.17
2018-09-23T16:21:10.525Z,16.07
2018-09-23T16:23:46.058Z,19.35
2018-09-23T16:26:21.839Z,16.82
2018-09-23T16:44:26.209Z,16.25
2018-09-23T16:47:01.669Z,17.32
2018-09-23T16:49:37.201Z,13.13
2018-09-23T16:52:12.810Z,14.25
2018-09-23T16:54:48.530Z,24.70
2018-09-23T16:57:23.983Z,9.68
2018-09-23T16:59:59.574Z,20.70
2018-09-23T17:02:35.317Z,15.38
2018-09-23T17:05:10.747Z,9.53
2018-09-23T17:07:46.214Z,12.10
2018-09-23T17:10:21.682Z,12.23
2018-09-23T17:12:57.229Z,10.93
2018-09-23T17:15:32.782Z,12.43
2018-09-23T17:18:08.583Z,14.58
2018-09-23T17:20:44.112Z,16.42
2018-09-23T17:23:19.479Z,15.15
2018-09-23T17:25:54.839Z,15.13
2018-09-23T17:28:30.463Z,13.60
2018-09-23T17:31:05.721Z,12.30
2018-09-23T17:33:41.297Z,14.68
2018-09-23T17:36:16.673Z,13.18
2018-09-23T17:38:52.351Z,13.83
2018-09-23T17:41:27.808Z,12.50
2018-09-23T17:44:03.339Z,14.25
2018-09-23T17:46:38.710Z,10.60
2018-09-23T17:49:14.150Z,21.97
2018-09-23T17:51:50.390Z,7.90
2018-09-23T17:54:25.870Z,12.35
2018-09-23T17:57:01.281Z,9.23
2018-09-23T17:59:36.766Z,13.22
2018-09-23T18:02:12.267Z,18.10
2018-09-23T18:04:47.709Z,11.78
2018-09-23T18:07:23.244Z,9.25
2018-09-23T18:09:58.806Z,13.65
2018-09-23T18:12:34.578Z,12.37
2018-09-23T18:15:10.155Z,15.58
2018-09-23T18:17:45.476Z,10.00
2018-09-23T18:20:21.042Z,10.32
2018-09-23T18:22:56.398Z,8.65
2018-09-23T18:25:32.083Z,13.00
2018-09-23T18:28:07.453Z,6.65
2018-09-23T18:30:43.089Z,7.40
2018-09-23T18:33:18.621Z,6.53
2018-09-23T18:35:54.383Z,14.07
2018-09-23T18:38:29.959Z,16.30
2018-09-23T18:41:05.624Z,9.10
2018-09-23T18:43:41.480Z,15.72
2018-09-23T18:46:16.985Z,9.18
2018-09-23T18:48:52.449Z,12.80
2018-09-23T18:51:27.965Z,12.73
2018-09-23T18:54:08.547Z,12.13
2018-09-23T18:56:44.213Z,5.62
2018-09-23T18:59:19.736Z,11.00
2018-09-23T19:01:55.454Z,17.42
2018-09-23T19:04:30.969Z,10.00
2018-09-23T19:07:06.616Z,12.13
2018-09-23T19:09:41.959Z,6.05
2018-09-23T19:12:17.569Z,11.90
2018-09-23T19:14:52.816Z,5.40
2018-09-23T19:17:28.579Z,9.00
2018-09-23T19:20:09.865Z,9.45
2018-09-23T19:23:20.316Z,13.65
2018-09-23T19:25:55.817Z,11.65
2018-09-23T19:28:31.411Z,9.80
2018-09-23T19:31:06.781Z,15.63
2018-09-23T19:33:42.368Z,20.23
2018-09-23T19:36:17.877Z,16.15
2018-09-23T19:38:53.497Z,10.60
2018-09-23T19:41:29.354Z,9.38
2018-09-23T19:44:05.209Z,10.35
2018-09-23T19:46:40.699Z,9.90
2018-09-23T19:49:16.309Z,7.10
2018-09-23T19:51:51.560Z,16.00
2018-09-23T19:54:27.084Z,5.22
2018-09-23T19:57:02.647Z,10.63
2018-09-23T19:59:38.213Z,7.65
2018-09-23T20:02:13.724Z,14.50
2018-09-23T20:04:49.432Z,15.72
2018-09-23T20:07:25.436Z,9.80
2018-09-23T20:10:01.502Z,10.88
2018-09-23T20:12:36.940Z,10.05
2018-09-23T20:15:17.305Z,16.65
2018-09-23T20:17:52.661Z,11.48
2018-09-23T20:20:28.397Z,17.23
2018-09-23T20:23:03.701Z,14.07
2018-09-23T20:25:39.180Z,23.52
2018-09-23T20:28:14.449Z,7.92
2018-09-23T20:30:50.149Z,7.72
2018-09-23T20:33:26.202Z,7.30
2018-09-23T20:36:02.129Z,11.12
2018-09-23T20:38:37.613Z,10.93
2018-09-23T20:41:13.095Z,6.53
2018-09-23T20:43:48.879Z,11.50
2018-09-23T20:46:24.545Z,10.88
2018-09-23T20:49:00.065Z,8.48
2018-09-23T20:51:35.682Z,9.10
2018-09-23T20:54:11.205Z,14.05
2018-09-23T20:56:46.622Z,6.28
2018-09-23T20:59:22.037Z,13.95
2018-09-23T21:01:57.844Z,13.50
2018-09-23T21:04:33.389Z,10.48
2018-09-23T21:07:09.026Z,9.53
2018-09-23T21:09:44.506Z,12.10
2018-09-23T21:12:20.159Z,4.72
2018-09-23T21:14:55.561Z,8.33
2018-09-23T21:17:31.080Z,5.20
2018-09-23T21:20:06.977Z,14.13
2018-09-23T21:22:42.474Z,9.20
2018-09-23T21:25:17.990Z,8.48
2018-09-23T21:27:53.568Z,5.62
2018-09-23T21:30:29.014Z,7.65
2018-09-23T21:33:04.758Z,9.48
2018-09-23T21:35:40.210Z,3.55
2018-09-23T21:38:15.794Z,12.13
2018-09-23T21:40:51.136Z,5.95
2018-09-23T21:43:27.137Z,9.88
2018-09-23T21:46:02.396Z,6.85
2018-09-23T21:48:37.860Z,4.78
2018-09-23T21:51:13.411Z,7.90
2018-09-23T21:53:49.141Z,7.50
2018-09-23T21:56:24.660Z,4.08
2018-09-23T21:59:00.065Z,6.30
2018-09-23T22:01:35.569Z,7.12
2018-09-23T22:04:11.944Z,5.58
2018-09-23T22:06:47.238Z,4.65
2018-09-23T22:09:23.844Z,7.60
2018-09-23T22:11:59.072Z,9.90
2018-09-23T22:14:34.841Z,27.27
2018-09-23T22:17:10.256Z,3.22
2018-09-23T22:19:46.353Z,9.68
2018-09-23T22:22:21.837Z,6.87
2018-09-23T22:24:57.578Z,10.50
2018-09-23T22:27:33.029Z,8.15
2018-09-23T22:30:08.669Z,8.23
2018-09-23T22:32:43.962Z,7.22
2018-09-23T22:35:19.693Z,3.42
2018-09-23T22:37:55.180Z,5.12
2018-09-23T22:40:30.824Z,10.70
2018-09-23T22:43:07.365Z,6.80
2018-09-23T22:45:43.036Z,7.08
2018-09-23T22:48:18.234Z,2.83
2018-09-23T22:50:53.919Z,8.40
2018-09-23T22:53:29.335Z,4.25
2018-09-23T22:56:04.933Z,8.35
2018-09-23T22:58:40.356Z,5.62
2018-09-23T23:01:15.926Z,7.25
2018-09-23T23:03:51.256Z,7.10
2018-09-23T23:06:26.812Z,4.10
2018-09-23T23:09:02.200Z,8.98
2018-09-23T23:11:37.811Z,2.72
2018-09-23T23:14:13.313Z,7.90
2018-09-23T23:16:49.035Z,6.20
2018-09-23T23:19:24.517Z,3.22
2018-09-23T23:22:00.197Z,7.33
2018-09-23T23:24:35.529Z,9.53
2018-09-23T23:27:10.999Z,7.45
2018-09-23T23:29:46.464Z,7.03
2018-09-23T23:32:22.088Z,13.25
2018-09-23T23:34:57.404Z,4.17
2018-09-23T23:37:32.877Z,6.17
2018-09-23T23:40:09.012Z,4.08
2018-09-23T23:42:44.771Z,4.40
2018-09-23T23:45:20.312Z,8.35
2018-09-23T23:47:55.798Z,7.87
2018-09-23T23:50:31.271Z,4.97
2018-09-23T23:53:06.764Z,7.25
2018-09-23T23:55:42.380Z,4.00
2018-09-23T23:58:18.200Z,6.35
